createdAt,value
2023-12-09T00:00:10.241Z,33.98
2023-12-09T00:02:37.829Z,33.93
2023-12-09T00:05:05.945Z,33.93
2023-12-09T00:07:33.561Z,33.93
2023-12-09T00:10:01.226Z,33.80
2023-12-09T00:12:29.005Z,33.82
2023-12-09T00:14:56.913Z,33.92
2023-12-09T00:30:24.039Z,37.23
2023-12-09T00:32:51.864Z,33.95
2023-12-09T00:35:19.727Z,33.96
2023-12-09T00:37:47.409Z,34.11
2023-12-09T00:40:14.987Z,34.19
2023-12-09T00:42:42.845Z,34.19
2023-12-09T00:45:10.748Z,34.31
2023-12-09T00:47:38.405Z,34.35
2023-12-09T00:50:07.160Z,34.43
2023-12-09T00:52:34.801Z,34.57
2023-12-09T00:55:02.457Z,34.57
2023-12-09T00:57:30.063Z,34.53
2023-12-09T00:59:57.798Z,34.47
2023-12-09T01:02:25.881Z,34.34
2023-12-09T01:04:53.951Z,34.41
2023-12-09T01:07:21.600Z,34.38
2023-12-09T01:09:49.172Z,34.43
2023-12-09T01:12:16.975Z,34.60
2023-12-09T01:14:45.295Z,34.63
2023-12-09T01:17:12.849Z,34.81
2023-12-09T01:19:40.442Z,34.98
2023-12-09T01:22:08.188Z,34.81
2023-12-09T01:24:36.040Z,34.85
2023-12-09T01:27:03.845Z,34.89
2023-12-09T01:29:31.389Z,34.91
2023-12-09T01:31:59.030Z,34.72
2023-12-09T01:34:26.727Z,34.61
2023-12-09T01:36:55.485Z,34.70
2023-12-09T01:39:23.061Z,34.72
2023-12-09T01:41:50.638Z,34.72
2023-12-09T01:44:18.674Z,34.57
2023-12-09T01:46:46.241Z,34.55
2023-12-09T01:49:15.492Z,34.58
2023-12-09T01:51:43.963Z,34.71
2023-12-09T01:54:11.615Z,34.85
2023-12-09T01:56:39.445Z,34.81
2023-12-09T01:59:07.323Z,34.75
2023-12-09T02:01:35.077Z,34.83
2023-12-09T02:04:03.041Z,35.02
2023-12-09T02:06:30.819Z,35.21
2023-12-09T02:08:58.866Z,35.25
2023-12-09T02:11:26.498Z,35.36
2023-12-09T02:14:05.926Z,35.44
2023-12-09T02:16:44.908Z,35.34
2023-12-09T02:19:14.750Z,35.26
2023-12-09T02:22:02.574Z,35.19
2023-12-09T02:24:30.241Z,35.26
2023-12-09T02:27:19.437Z,35.00
2023-12-09T02:29:56.200Z,34.94
2023-12-09T02:32:26.134Z,35.01
2023-12-09T02:34:54.051Z,34.86
2023-12-09T02:37:21.975Z,34.94
2023-12-09T02:39:49.729Z,35.04
2023-12-09T02:42:17.315Z,34.94
2023-12-09T02:44:44.897Z,34.99
2023-12-09T02:47:15.835Z,35.04
2023-12-09T02:49:44.161Z,34.99
2023-12-09T02:52:12.436Z,34.98
2023-12-09T02:54:40.009Z,35.09
2023-12-09T02:57:07.719Z,35.11
2023-12-09T02:59:35.694Z,35.10
2023-12-09T03:02:03.352Z,35.17
2023-12-09T03:04:32.543Z,34.99
2023-12-09T03:07:00.114Z,35.01
2023-12-09T03:09:27.805Z,34.96
2023-12-09T03:11:55.566Z,34.98
2023-12-09T03:14:24.022Z,34.92
2023-12-09T03:16:51.572Z,34.85
2023-12-09T03:19:19.336Z,34.66
2023-12-09T03:21:47.133Z,34.79
2023-12-09T03:24:14.898Z,34.88
2023-12-09T03:26:42.527Z,34.91
2023-12-09T03:29:10.121Z,34.98
2023-12-09T03:31:40.980Z,35.10
2023-12-09T03:34:08.908Z,35.19
2023-12-09T03:36:36.602Z,35.22
2023-12-09T03:39:05.076Z,35.31
2023-12-09T03:41:32.705Z,35.28
2023-12-09T03:44:00.516Z,35.32
2023-12-09T03:46:28.136Z,35.34
2023-12-09T03:48:55.941Z,35.38
2023-12-09T03:51:23.791Z,35.30
2023-12-09T03:53:51.595Z,35.26
2023-12-09T03:56:19.202Z,35.27
2023-12-09T03:58:46.794Z,35.36
2023-12-09T04:01:14.451Z,35.30
2023-12-09T04:03:42.313Z,35.50
2023-12-09T04:06:10.188Z,35.53
2023-12-09T04:08:37.955Z,35.40
2023-12-09T04:11:06.473Z,35.37
2023-12-09T04:13:34.481Z,35.21
2023-12-09T04:16:02.432Z,35.21
2023-12-09T04:18:30.202Z,35.16
2023-12-09T04:20:58.915Z,35.23
2023-12-09T04:23:26.550Z,35.28
2023-12-09T04:25:54.218Z,35.42
2023-12-09T04:28:21.867Z,35.30
2023-12-09T04:30:49.544Z,35.27
2023-12-09T04:33:17.211Z,35.30
2023-12-09T04:35:44.861Z,35.31
2023-12-09T04:38:12.623Z,35.27
2023-12-09T04:40:40.186Z,35.27
2023-12-09T04:43:07.845Z,35.25
2023-12-09T04:45:35.423Z,35.29
2023-12-09T04:48:04.642Z,35.58
2023-12-09T04:50:32.268Z,35.63
2023-12-09T04:52:59.774Z,35.46
2023-12-09T04:55:27.800Z,35.55
2023-12-09T04:57:55.567Z,35.59
2023-12-09T05:00:23.480Z,35.58
2023-12-09T05:02:51.952Z,35.37
2023-12-09T05:05:20.452Z,35.18
2023-12-09T05:07:48.165Z,35.17
2023-12-09T05:10:15.668Z,35.11
2023-12-09T05:12:43.310Z,34.99
2023-12-09T05:15:12.333Z,35.10
2023-12-09T05:17:40.150Z,35.18
2023-12-09T05:20:11.156Z,35.16
2023-12-09T05:22:39.037Z,35.17
2023-12-09T05:25:07.370Z,35.18
2023-12-09T05:27:34.946Z,35.00
2023-12-09T05:30:02.685Z,35.02
2023-12-09T05:32:30.650Z,34.94
2023-12-09T05:34:58.373Z,34.88
2023-12-09T05:37:25.981Z,34.88
2023-12-09T05:39:53.700Z,34.93
2023-12-09T05:42:21.284Z,35.01
2023-12-09T05:44:48.820Z,35.04
2023-12-09T05:47:16.387Z,34.97
2023-12-09T05:49:44.102Z,34.96
2023-12-09T05:52:11.812Z,35.01
2023-12-09T05:54:39.403Z,35.05
2023-12-09T05:57:07.103Z,35.23
2023-12-09T05:59:34.810Z,35.32
2023-12-09T06:02:02.306Z,35.36
2023-12-09T06:04:30.050Z,35.32
2023-12-09T06:06:57.901Z,35.26
2023-12-09T06:09:25.671Z,35.16
2023-12-09T06:11:53.444Z,35.19
2023-12-09T06:14:21.186Z,35.18
2023-12-09T06:16:49.060Z,35.03
2023-12-09T06:19:16.709Z,34.81
2023-12-09T06:21:44.526Z,35.03
2023-12-09T06:24:16.547Z,35.00
2023-12-09T06:26:45.881Z,35.00
2023-12-09T06:29:16.948Z,35.15
2023-12-09T06:31:44.562Z,35.17
2023-12-09T06:34:12.367Z,35.21
2023-12-09T06:36:40.112Z,35.22
2023-12-09T06:39:07.892Z,35.23
2023-12-09T06:41:39.502Z,35.33
2023-12-09T06:44:07.258Z,35.23
2023-12-09T06:46:38.401Z,35.11
2023-12-09T06:49:07.029Z,35.08
2023-12-09T06:51:34.898Z,35.11
2023-12-09T06:54:03.256Z,35.07
2023-12-09T06:56:31.009Z,35.00
2023-12-09T06:58:58.562Z,34.82
2023-12-09T07:01:28.443Z,34.68
2023-12-09T07:03:56.751Z,34.43
2023-12-09T07:06:25.781Z,34.27
2023-12-09T07:08:54.439Z,34.22
2023-12-09T07:11:22.964Z,34.27
2023-12-09T07:13:50.724Z,34.31
2023-12-09T07:16:19.874Z,34.41
2023-12-09T07:18:48.582Z,34.61
2023-12-09T07:21:16.867Z,34.70
2023-12-09T07:23:46.448Z,34.69
2023-12-09T07:26:15.048Z,34.67
2023-12-09T07:28:42.735Z,34.64
2023-12-09T07:31:10.675Z,34.57
2023-12-09T07:33:40.005Z,34.27
2023-12-09T07:36:08.964Z,33.94
2023-12-09T07:38:47.335Z,33.93
2023-12-09T07:41:30.328Z,34.12
2023-12-09T07:44:03.790Z,34.18
2023-12-09T07:46:35.304Z,34.11
2023-12-09T07:49:03.786Z,34.09
2023-12-09T07:51:31.526Z,34.03
2023-12-09T07:53:59.186Z,34.00
2023-12-09T07:56:26.912Z,33.94
2023-12-09T07:58:54.577Z,33.94
2023-12-09T08:01:22.300Z,33.95
2023-12-09T08:03:50.258Z,33.96
2023-12-09T08:06:18.334Z,33.88
2023-12-09T08:08:46.051Z,33.97
2023-12-09T08:11:13.892Z,34.00
2023-12-09T08:13:44.362Z,33.86
2023-12-09T08:16:12.109Z,33.68
2023-12-09T08:18:39.772Z,33.70
2023-12-09T08:21:07.648Z,33.64
2023-12-09T08:23:35.601Z,33.44
2023-12-09T08:26:05.358Z,33.46
2023-12-09T08:28:36.064Z,33.45
2023-12-09T08:31:06.212Z,33.36
2023-12-09T08:33:37.538Z,33.18
2023-12-09T08:36:06.222Z,33.10
2023-12-09T08:38:34.066Z,33.01
2023-12-09T08:41:01.628Z,33.01
2023-12-09T08:43:29.288Z,32.74
2023-12-09T08:45:56.903Z,32.73
2023-12-09T08:48:30.112Z,32.99
2023-12-09T08:50:58.283Z,32.86
2023-12-09T08:53:25.982Z,32.91
2023-12-09T08:55:53.742Z,32.72
2023-12-09T08:58:21.408Z,32.62
2023-12-09T09:00:52.982Z,32.35
2023-12-09T09:03:21.373Z,32.28
2023-12-09T09:05:49.253Z,32.32
2023-12-09T09:08:16.972Z,32.41
2023-12-09T09:10:44.640Z,32.36
2023-12-09T09:13:12.327Z,32.22
2023-12-09T09:15:40.087Z,31.98
2023-12-09T09:18:08.396Z,32.09
2023-12-09T09:20:36.207Z,32.17
2023-12-09T09:23:03.824Z,32.07
2023-12-09T09:25:32.149Z,31.76
2023-12-09T09:27:59.807Z,31.56
2023-12-09T09:30:27.501Z,31.78
2023-12-09T09:32:55.341Z,31.89
2023-12-09T09:35:23.215Z,32.02
2023-12-09T09:37:50.773Z,32.14
2023-12-09T09:40:18.428Z,31.97
2023-12-09T09:42:57.283Z,31.98
2023-12-09T09:50:11.806Z,32.00
2023-12-09T09:52:41.931Z,31.94
2023-12-09T09:55:09.725Z,31.93
2023-12-09T09:57:37.509Z,31.98
2023-12-09T10:00:15.384Z,32.07
2023-12-09T10:02:55.335Z,31.97
2023-12-09T10:05:24.938Z,31.65
2023-12-09T10:07:53.371Z,31.55
2023-12-09T10:10:21.233Z,31.76
2023-12-09T10:12:49.295Z,31.88
2023-12-09T10:15:17.206Z,31.77
2023-12-09T10:17:45.560Z,31.47
2023-12-09T10:20:13.699Z,31.46
2023-12-09T10:22:41.712Z,31.46
2023-12-09T10:25:09.494Z,31.10
2023-12-09T10:27:37.023Z,31.17
2023-12-09T10:30:09.983Z,31.44
2023-12-09T10:32:38.018Z,31.77
2023-12-09T10:35:06.580Z,32.04
2023-12-09T10:37:34.551Z,32.04
2023-12-09T10:40:04.007Z,31.79
2023-12-09T10:42:32.053Z,31.89
2023-12-09T10:45:04.686Z,31.95
2023-12-09T10:47:32.534Z,32.15
2023-12-09T10:50:00.501Z,32.19
2023-12-09T10:52:28.456Z,32.25
2023-12-09T10:54:56.735Z,32.28
2023-12-09T10:57:24.899Z,32.26
2023-12-09T10:59:53.630Z,32.31
2023-12-09T11:02:22.424Z,32.04
2023-12-09T11:04:50.658Z,32.16
2023-12-09T11:07:18.313Z,32.01
2023-12-09T11:09:46.013Z,31.87
2023-12-09T11:12:30.141Z,31.87
2023-12-09T11:15:24.535Z,32.20
2023-12-09T11:17:55.175Z,32.29
2023-12-09T11:20:24.113Z,32.42
2023-12-09T11:22:52.007Z,32.37
2023-12-09T11:25:19.791Z,32.43
2023-12-09T11:27:50.202Z,32.52
2023-12-09T11:30:47.927Z,32.43
2023-12-09T11:33:15.938Z,32.26
2023-12-09T11:35:44.438Z,32.21
2023-12-09T11:38:11.990Z,32.20
2023-12-09T11:40:39.642Z,32.25
2023-12-09T11:43:10.086Z,32.47
2023-12-09T11:45:38.680Z,32.41
2023-12-09T11:48:06.912Z,32.49
2023-12-09T11:50:35.534Z,32.72
2023-12-09T11:53:03.379Z,32.78
2023-12-09T11:55:31.093Z,32.76
2023-12-09T11:57:58.931Z,32.49
2023-12-09T12:00:27.518Z,32.46
2023-12-09T12:02:55.478Z,32.66
2023-12-09T12:05:23.204Z,32.56
2023-12-09T12:07:50.871Z,32.67
2023-12-09T12:10:18.961Z,32.89
2023-12-09T12:12:46.775Z,32.95
2023-12-09T12:15:14.875Z,33.03
2023-12-09T12:17:42.937Z,32.84
2023-12-09T12:20:12.059Z,32.77
2023-12-09T12:22:43.104Z,32.61
2023-12-09T12:25:11.241Z,32.73
2023-12-09T12:27:43.091Z,32.76
2023-12-09T12:30:11.351Z,32.83
2023-12-09T12:32:39.714Z,32.72
2023-12-09T12:38:10.969Z,35.90
2023-12-09T12:40:38.526Z,33.67
2023-12-09T12:43:06.189Z,33.36
2023-12-09T12:45:34.237Z,33.21
2023-12-09T12:48:02.035Z,32.90
2023-12-09T12:50:29.799Z,32.96
2023-12-09T12:52:57.763Z,33.01
2023-12-09T12:55:25.532Z,33.03
2023-12-09T12:57:56.073Z,32.95
2023-12-09T13:00:24.445Z,32.89
2023-12-09T13:02:52.306Z,32.88
2023-12-09T13:05:19.969Z,32.89
2023-12-09T13:07:49.471Z,32.98
2023-12-09T13:10:17.155Z,32.97
2023-12-09T13:12:45.310Z,32.86
2023-12-09T13:15:13.088Z,32.94
2023-12-09T13:17:41.196Z,33.14
2023-12-09T13:20:11.282Z,33.17
2023-12-09T13:22:39.066Z,33.35
2023-12-09T13:25:08.249Z,33.34
2023-12-09T13:27:37.469Z,33.34
2023-12-09T13:30:08.373Z,33.32
2023-12-09T13:32:36.401Z,33.29
2023-12-09T13:35:05.689Z,33.24
2023-12-09T13:37:33.993Z,33.28
2023-12-09T13:40:02.504Z,33.24
2023-12-09T13:42:30.964Z,33.06
2023-12-09T13:44:59.761Z,33.02
2023-12-09T13:47:27.546Z,32.97
2023-12-09T13:49:55.262Z,32.90
2023-12-09T13:52:24.125Z,32.99
2023-12-09T13:54:53.282Z,33.06
2023-12-09T13:57:20.990Z,33.24
2023-12-09T13:59:48.860Z,33.44
2023-12-09T14:02:16.784Z,33.63
2023-12-09T14:04:44.505Z,33.67
2023-12-09T14:07:12.415Z,33.63
2023-12-09T14:09:40.052Z,33.72
2023-12-09T14:12:08.497Z,33.82
2023-12-09T14:14:36.222Z,33.77
2023-12-09T14:17:06.797Z,33.89
2023-12-09T14:19:34.666Z,34.04
2023-12-09T14:22:04.219Z,34.06
2023-12-09T14:24:31.899Z,33.93
2023-12-09T14:26:59.772Z,34.01
2023-12-09T14:29:27.348Z,33.94
2023-12-09T14:31:55.081Z,33.87
2023-12-09T14:34:23.186Z,33.66
2023-12-09T14:36:51.017Z,33.54
2023-12-09T14:39:19.124Z,33.66
2023-12-09T14:41:46.811Z,33.83
2023-12-09T14:44:14.765Z,33.92
2023-12-09T14:46:42.309Z,33.80
2023-12-09T14:49:10.066Z,33.65
2023-12-09T14:51:43.473Z,33.53
2023-12-09T14:54:15.769Z,33.46
2023-12-09T14:56:45.337Z,33.41
2023-12-09T14:59:13.266Z,33.33
2023-12-09T15:01:41.251Z,33.43
2023-12-09T15:04:09.098Z,33.40
2023-12-09T15:06:36.938Z,33.42
2023-12-09T15:09:04.786Z,33.43
2023-12-09T15:11:32.645Z,33.49
2023-12-09T15:14:00.197Z,33.44
2023-12-09T15:16:30.151Z,33.49
2023-12-09T15:18:57.967Z,33.51
2023-12-09T15:21:25.784Z,33.53
2023-12-09T15:23:53.726Z,33.70
2023-12-09T15:26:21.849Z,33.78
2023-12-09T15:28:50.528Z,33.63
2023-12-09T15:31:18.366Z,33.56
2023-12-09T15:33:46.221Z,33.48
2023-12-09T15:36:14.077Z,33.46
2023-12-09T15:38:42.021Z,33.60
2023-12-09T15:41:09.683Z,33.69
2023-12-09T15:43:37.394Z,33.72
2023-12-09T15:46:05.317Z,33.72
2023-12-09T15:48:33.142Z,33.68
2023-12-09T15:51:03.025Z,33.67
2023-12-09T15:53:30.973Z,33.66
2023-12-09T15:56:00.419Z,33.70
2023-12-09T15:58:28.237Z,33.69
2023-12-09T16:00:55.970Z,33.64
2023-12-09T16:03:23.954Z,33.69
2023-12-09T16:05:54.194Z,33.58
2023-12-09T16:08:22.871Z,33.49
2023-12-09T16:10:51.052Z,33.35
2023-12-09T16:13:19.272Z,33.23
2023-12-09T16:15:47.104Z,33.07
2023-12-09T16:18:15.328Z,33.01
2023-12-09T16:20:43.231Z,32.85
2023-12-09T16:23:10.893Z,32.79
2023-12-09T16:25:38.563Z,32.78
2023-12-09T16:28:07.042Z,32.65
2023-12-09T16:30:34.758Z,32.62
2023-12-09T16:33:03.246Z,32.69
2023-12-09T16:35:31.056Z,32.75
2023-12-09T16:37:58.928Z,32.68
2023-12-09T16:40:26.798Z,32.66
2023-12-09T16:42:54.565Z,32.82
2023-12-09T16:45:22.398Z,32.93
2023-12-09T16:47:50.216Z,33.04
2023-12-09T16:50:18.366Z,33.04
2023-12-09T16:52:46.034Z,33.12
2023-12-09T16:55:13.913Z,33.18
2023-12-09T16:57:41.598Z,33.20
2023-12-09T17:00:11.312Z,33.25
2023-12-09T17:02:39.724Z,33.23
2023-12-09T17:05:10.132Z,33.17
2023-12-09T17:07:37.740Z,33.23
2023-12-09T17:10:06.132Z,33.40
2023-12-09T17:12:33.752Z,33.44
2023-12-09T17:15:01.445Z,33.49
2023-12-09T17:17:29.134Z,33.58
2023-12-09T17:19:57.218Z,33.50
2023-12-09T17:22:26.798Z,33.37
2023-12-09T17:24:54.650Z,33.31
2023-12-09T17:27:22.334Z,33.21
2023-12-09T17:29:49.875Z,33.16
2023-12-09T17:32:17.634Z,33.10
2023-12-09T17:34:45.862Z,32.97
2023-12-09T17:37:13.682Z,32.85
2023-12-09T17:39:41.400Z,32.83
2023-12-09T17:42:09.166Z,32.81
2023-12-09T17:44:36.971Z,32.85
2023-12-09T17:47:05.358Z,32.80
2023-12-09T17:49:33.331Z,32.76
2023-12-09T17:52:01.702Z,32.74
2023-12-09T17:54:29.419Z,32.83
2023-12-09T17:56:57.124Z,32.89
2023-12-09T17:59:24.897Z,32.94
2023-12-09T18:01:52.550Z,33.07
2023-12-09T18:04:20.366Z,33.05
2023-12-09T18:06:48.380Z,33.09
2023-12-09T18:09:16.296Z,33.36
2023-12-09T18:11:44.330Z,33.37
2023-12-09T18:14:11.886Z,33.41
2023-12-09T18:16:39.959Z,33.35
2023-12-09T18:19:07.825Z,33.33
2023-12-09T18:21:36.498Z,33.38
2023-12-09T18:24:05.035Z,33.38
2023-12-09T18:26:32.701Z,33.35
2023-12-09T18:29:00.865Z,33.42
2023-12-09T18:31:29.416Z,33.36
2023-12-09T18:33:57.818Z,33.28
2023-12-09T18:36:25.770Z,33.24
2023-12-09T18:38:53.527Z,33.23
2023-12-09T18:41:21.422Z,33.34
2023-12-09T18:43:50.290Z,33.45
2023-12-09T18:46:18.159Z,33.32
2023-12-09T18:48:49.259Z,33.33
2023-12-09T18:51:17.277Z,33.19
2023-12-09T18:53:44.930Z,33.07
2023-12-09T18:56:12.687Z,32.93
2023-12-09T18:58:41.067Z,32.92
2023-12-09T19:01:11.265Z,32.81
2023-12-09T19:03:40.043Z,32.76
2023-12-09T19:06:10.026Z,32.80
2023-12-09T19:08:39.034Z,32.96
2023-12-09T19:11:07.413Z,33.06
2023-12-09T19:13:35.115Z,33.17
2023-12-09T19:16:03.924Z,33.18
2023-12-09T19:18:31.808Z,33.27
2023-12-09T19:20:59.661Z,33.34
2023-12-09T19:23:27.423Z,33.46
2023-12-09T19:25:55.080Z,33.50
2023-12-09T19:28:22.953Z,33.65
2023-12-09T19:30:50.686Z,33.77
2023-12-09T19:33:18.481Z,33.76
2023-12-09T19:35:46.356Z,33.75
2023-12-09T19:38:14.219Z,33.73
2023-12-09T19:40:41.840Z,33.66
2023-12-09T19:43:09.639Z,33.56
2023-12-09T19:45:37.333Z,33.62
2023-12-09T19:48:05.141Z,33.57
2023-12-09T19:50:32.950Z,33.56
2023-12-09T19:53:02.385Z,33.49
2023-12-09T19:55:30.099Z,33.38
2023-12-09T19:57:58.623Z,33.34
2023-12-09T20:00:26.594Z,33.41
2023-12-09T20:02:54.438Z,33.52
2023-12-09T20:05:23.422Z,33.52
2023-12-09T20:07:51.182Z,33.67
2023-12-09T20:10:18.845Z,33.59
2023-12-09T20:12:46.724Z,33.67
2023-12-09T20:15:15.097Z,33.71
2023-12-09T20:17:42.731Z,33.83
2023-12-09T20:20:11.109Z,33.81
2023-12-09T20:22:39.010Z,33.88
2023-12-09T20:25:07.387Z,33.84
2023-12-09T20:27:35.237Z,33.76
2023-12-09T20:30:03.541Z,33.77
2023-12-09T20:32:31.525Z,33.63
2023-12-09T20:34:59.769Z,33.61
2023-12-09T20:37:27.428Z,33.70
2023-12-09T20:39:58.423Z,33.75
2023-12-09T20:42:26.537Z,33.66
2023-12-09T20:44:54.697Z,33.49
2023-12-09T20:47:23.000Z,33.45
2023-12-09T20:49:52.271Z,33.42
2023-12-09T20:52:20.671Z,33.31
2023-12-09T20:54:48.774Z,33.30
2023-12-09T20:57:16.780Z,33.32
2023-12-09T20:59:44.586Z,33.29
2023-12-09T21:02:12.341Z,33.32
2023-12-09T21:04:45.414Z,33.36
2023-12-09T21:07:13.574Z,33.40
2023-12-09T21:09:41.378Z,33.43
2023-12-09T21:12:09.496Z,33.49
2023-12-09T21:14:37.328Z,33.56
2023-12-09T21:17:05.391Z,33.48
2023-12-09T21:19:36.175Z,33.49
2023-12-09T21:22:04.649Z,33.50
2023-12-09T21:24:32.805Z,33.62
2023-12-09T21:27:00.749Z,33.63
2023-12-09T21:29:28.607Z,33.74
2023-12-09T21:31:58.433Z,33.81
2023-12-09T21:34:26.163Z,33.83
2023-12-09T21:36:54.168Z,33.79
2023-12-09T21:39:21.861Z,33.83
2023-12-09T21:41:49.592Z,33.79
2023-12-09T21:44:17.247Z,33.81
2023-12-09T21:46:44.802Z,33.81
2023-12-09T21:49:12.926Z,33.75
2023-12-09T21:51:41.544Z,33.66
2023-12-09T21:54:09.420Z,33.71
2023-12-09T21:56:37.208Z,33.60
2023-12-09T21:59:05.479Z,33.47
2023-12-09T22:01:34.288Z,33.50
2023-12-09T22:04:04.387Z,33.51
2023-12-09T22:06:32.183Z,33.44
2023-12-09T22:09:00.684Z,33.45
2023-12-09T22:11:28.404Z,33.42
2023-12-09T22:13:56.053Z,33.32
2023-12-09T22:16:23.721Z,33.52
2023-12-09T22:18:51.601Z,33.61
2023-12-09T22:21:19.735Z,33.65
2023-12-09T22:23:47.551Z,33.70
2023-12-09T22:26:15.186Z,33.79
2023-12-09T22:28:43.362Z,33.84
2023-12-09T22:31:11.233Z,33.91
2023-12-09T22:33:41.522Z,33.87
2023-12-09T22:36:12.785Z,33.94
2023-12-09T22:38:40.458Z,33.89
2023-12-09T22:41:08.206Z,33.91
2023-12-09T22:43:36.093Z,33.90
2023-12-09T22:46:04.633Z,33.81
2023-12-09T22:48:32.540Z,33.74
2023-12-09T22:51:02.620Z,33.80
2023-12-09T22:53:30.325Z,33.89
2023-12-09T22:56:12.161Z,33.83
2023-12-09T22:58:41.832Z,33.80
2023-12-09T23:01:09.760Z,33.82
2023-12-09T23:03:37.633Z,33.78
2023-12-09T23:06:06.643Z,33.89
2023-12-09T23:08:35.818Z,33.92
2023-12-09T23:11:06.230Z,33.97
2023-12-09T23:13:33.950Z,34.09
2023-12-09T23:16:01.675Z,34.09
2023-12-09T23:18:30.435Z,34.14
2023-12-09T23:20:58.166Z,34.17
2023-12-09T23:23:25.827Z,34.11
2023-12-09T23:25:54.715Z,34.16
2023-12-09T23:28:23.814Z,34.19
2023-12-09T23:30:51.568Z,34.09
2023-12-09T23:33:19.594Z,34.12
2023-12-09T23:35:47.837Z,34.11
2023-12-09T23:38:15.596Z,33.98
2023-12-09T23:40:43.562Z,33.86
2023-12-09T23:43:11.286Z,33.80
2023-12-09T23:45:39.091Z,33.79
2023-12-09T23:48:07.728Z,33.67
2023-12-09T23:50:35.543Z,33.54
2023-12-09T23:53:03.317Z,33.69
2023-12-09T23:55:31.085Z,33.73
2023-12-09T23:57:58.800Z,33.77
